createdAt,value
2019-05-11T00:00:09.691Z,45.13
2019-05-11T00:02:59.622Z,38.93
2019-05-11T00:05:33.158Z,35.27
2019-05-11T00:08:24.435Z,36.40
2019-05-11T00:10:55.434Z,36.40
2019-05-11T00:18:09.469Z,36.87
2019-05-11T00:21:02.955Z,34.00
2019-05-11T00:23:40.880Z,38.50
2019-05-11T00:26:28.561Z,38.07
2019-05-11T00:28:57.851Z,39.17
2019-05-11T00:31:34.467Z,37.33
2019-05-11T00:34:12.520Z,40.80
2019-05-11T00:36:49.762Z,38.63
2019-05-11T00:39:18.205Z,38.70
2019-05-11T00:42:12.975Z,39.33
2019-05-11T00:44:47.203Z,42.20
2019-05-11T00:47:29.204Z,36.70
2019-05-11T00:50:02.616Z,41.20
2019-05-11T00:52:34.969Z,39.60
2019-05-11T00:55:12.708Z,41.93
2019-05-11T00:57:53.990Z,38.87
2019-05-11T01:00:25.654Z,37.73
2019-05-11T01:03:04.187Z,42.27
2019-05-11T01:05:55.429Z,38.90
2019-05-11T01:08:51.398Z,38.23
2019-05-11T01:17:27.036Z,40.33
2019-05-11T01:19:59.496Z,44.70
2019-05-11T01:22:39.692Z,39.67
2019-05-11T01:25:21.583Z,44.30
2019-05-11T01:28:12.882Z,44.27
2019-05-11T01:31:04.797Z,44.67
2019-05-11T01:33:43.562Z,43.73
2019-05-11T01:36:41.130Z,46.67
2019-05-11T01:38:52.088Z,43.30
2019-05-11T01:41:29.308Z,43.00
2019-05-11T01:44:12.872Z,49.63
2019-05-11T01:46:56.251Z,44.60
2019-05-11T01:49:40.678Z,42.97
2019-05-11T01:52:14.220Z,48.13
2019-05-11T01:54:48.693Z,45.07
2019-05-11T01:57:23.277Z,48.10
2019-05-11T01:59:53.057Z,49.33
2019-05-11T02:02:28.380Z,51.83
2019-05-11T02:05:20.645Z,52.13
2019-05-11T02:08:00.262Z,45.33
2019-05-11T02:10:33.638Z,46.60
2019-05-11T02:13:11.042Z,49.60
2019-05-11T02:15:45.352Z,44.13
2019-05-11T02:18:16.405Z,49.73
2019-05-11T02:20:49.300Z,41.90
2019-05-11T02:23:30.826Z,46.20
2019-05-11T02:26:03.377Z,43.53
2019-05-11T02:28:37.298Z,46.10
2019-05-11T02:31:12.940Z,46.30
2019-05-11T02:34:03.732Z,48.23
2019-05-11T02:36:41.596Z,41.63
2019-05-11T02:39:23.432Z,45.57
2019-05-11T02:42:04.194Z,41.80
2019-05-11T02:44:48.527Z,41.77
2019-05-11T02:47:29.223Z,44.53
2019-05-11T02:50:37.212Z,46.53
2019-05-11T02:53:06.012Z,44.07
2019-05-11T02:55:48.208Z,45.47
2019-05-11T02:58:31.286Z,44.43
2019-05-11T03:01:02.196Z,47.03
2019-05-11T03:03:34.626Z,43.00
2019-05-11T03:06:12.681Z,48.70
2019-05-11T03:08:40.101Z,44.33
2019-05-11T03:11:27.960Z,45.93
2019-05-11T03:17:57.878Z,42.37
2019-05-11T03:20:29.420Z,41.80
2019-05-11T03:23:00.394Z,37.10
2019-05-11T03:25:33.568Z,38.40
2019-05-11T03:28:08.967Z,35.03
2019-05-11T03:30:41.078Z,39.23
2019-05-11T03:33:15.285Z,33.67
2019-05-11T03:35:48.425Z,34.60
2019-05-11T03:38:23.889Z,32.87
2019-05-11T03:41:05.059Z,31.80
2019-05-11T03:43:52.341Z,29.57
2019-05-11T03:46:25.840Z,34.43
2019-05-11T03:49:04.009Z,29.37
2019-05-11T03:51:37.911Z,27.40
2019-05-11T03:54:14.680Z,25.67
2019-05-11T03:56:45.770Z,32.40
2019-05-11T03:59:33.855Z,28.00
2019-05-11T04:02:07.413Z,25.33
2019-05-11T04:04:44.434Z,25.10
2019-05-11T04:07:17.828Z,27.37
2019-05-11T04:10:00.445Z,24.77
2019-05-11T04:12:34.882Z,24.93
2019-05-11T04:15:23.513Z,28.30
2019-05-11T04:17:54.886Z,27.00
2019-05-11T04:20:24.718Z,28.80
2019-05-11T04:23:02.086Z,30.53
2019-05-11T04:25:42.075Z,26.17
2019-05-11T04:28:18.460Z,25.85
2019-05-11T04:31:33.563Z,23.10
2019-05-11T04:34:01.945Z,23.30
2019-05-11T04:36:39.547Z,22.30
2019-05-11T04:39:14.758Z,23.30
2019-05-11T04:42:17.717Z,23.67
2019-05-11T04:51:44.641Z,20.77
2019-05-11T04:54:43.891Z,23.15
2019-05-11T05:00:44.780Z,24.40
2019-05-11T05:03:17.523Z,24.33
2019-05-11T05:05:52.833Z,22.10
2019-05-11T05:08:32.543Z,21.62
2019-05-11T05:18:19.778Z,21.73
2019-05-11T05:20:54.175Z,23.20
2019-05-11T05:23:41.451Z,20.90
2019-05-11T05:33:40.827Z,20.00
2019-05-11T05:36:29.796Z,20.62
2019-05-11T05:39:08.621Z,19.73
2019-05-11T05:45:11.061Z,18.95
2019-05-11T05:55:46.044Z,21.17
2019-05-11T05:58:40.493Z,17.90
2019-05-11T06:04:12.411Z,19.37
2019-05-11T06:07:08.590Z,18.67
2019-05-11T06:09:29.568Z,16.55
2019-05-11T06:12:28.653Z,20.37
2019-05-11T06:21:05.319Z,18.45
2019-05-11T06:23:56.443Z,18.35
2019-05-11T06:55:43.352Z,22.82
2019-05-11T06:58:29.858Z,24.25
2019-05-11T06:59:12.690Z,24.20
2019-05-11T07:01:48.491Z,22.52
2019-05-11T07:04:06.432Z,21.95
2019-05-11T07:06:47.090Z,21.87
2019-05-11T07:09:28.919Z,21.27
2019-05-11T07:12:00.061Z,21.95
2019-05-11T07:14:35.416Z,20.50
2019-05-11T07:17:08.292Z,20.62
2019-05-11T07:19:51.225Z,19.62
2019-05-11T07:22:15.297Z,19.62
2019-05-11T07:25:01.492Z,19.92
2019-05-11T07:27:25.417Z,18.45
2019-05-11T07:30:03.744Z,18.87
2019-05-11T07:32:42.252Z,25.88
2019-05-11T07:37:08.077Z,17.12
2019-05-11T07:37:48.145Z,15.28
2019-05-11T07:40:19.415Z,13.32
2019-05-11T07:42:58.965Z,12.78
2019-05-11T07:45:28.812Z,12.60
2019-05-11T07:48:05.275Z,11.20
2019-05-11T07:50:38.529Z,12.03
2019-05-11T07:53:10.352Z,12.20
2019-05-11T07:55:44.143Z,12.25
2019-05-11T07:58:20.597Z,10.63
2019-05-11T08:00:50.455Z,15.32
2019-05-11T08:03:39.461Z,12.10
2019-05-11T08:06:02.473Z,10.43
2019-05-11T08:08:39.883Z,11.30
2019-05-11T08:11:18.344Z,13.60
2019-05-11T08:14:01.067Z,11.80
2019-05-11T08:16:34.239Z,11.38
2019-05-11T08:19:10.835Z,15.32
2019-05-11T08:21:39.080Z,12.90
2019-05-11T08:24:19.312Z,13.85
2019-05-11T08:26:54.085Z,15.63
2019-05-11T08:29:23.695Z,16.82
2019-05-11T08:31:58.459Z,17.25
2019-05-11T08:34:29.647Z,13.70
2019-05-11T08:37:01.771Z,15.35
2019-05-11T08:39:51.475Z,16.95
2019-05-11T08:42:14.356Z,14.68
2019-05-11T08:44:48.204Z,19.73
2019-05-11T08:47:28.348Z,15.13
2019-05-11T08:50:20.698Z,14.63
2019-05-11T08:52:52.837Z,11.00
2019-05-11T08:55:32.621Z,12.60
2019-05-11T08:58:04.476Z,10.08
2019-05-11T09:00:36.009Z,17.65
2019-05-11T09:03:05.581Z,16.55
2019-05-11T09:05:35.284Z,12.53
2019-05-11T09:08:08.075Z,10.23
2019-05-11T09:10:44.491Z,9.55
2019-05-11T09:13:18.536Z,10.15
2019-05-11T09:15:53.717Z,10.35
2019-05-11T09:18:27.978Z,8.40
2019-05-11T09:20:57.700Z,9.58
2019-05-11T09:23:37.410Z,8.65
2019-05-11T09:26:03.023Z,9.60
2019-05-11T09:28:41.453Z,15.18
2019-05-11T09:31:15.142Z,9.58
2019-05-11T09:33:48.358Z,12.03
2019-05-11T09:36:20.252Z,9.88
2019-05-11T09:38:58.130Z,10.28
2019-05-11T09:41:30.147Z,21.12
2019-05-11T09:44:02.386Z,9.28
2019-05-11T09:46:38.479Z,10.85
2019-05-11T09:49:13.756Z,13.18
2019-05-11T09:51:48.416Z,9.43
2019-05-11T09:54:18.364Z,10.18
2019-05-11T09:56:50.456Z,10.00
2019-05-11T09:59:21.824Z,11.85
2019-05-11T10:01:53.443Z,10.80
2019-05-11T10:04:23.320Z,10.45
2019-05-11T10:07:02.129Z,16.20
2019-05-11T10:09:31.824Z,13.45
2019-05-11T10:12:19.074Z,9.90
2019-05-11T10:14:59.049Z,21.73
2019-05-11T10:17:32.999Z,10.72
2019-05-11T10:20:02.243Z,66.50
2019-05-11T10:22:38.431Z,9.88
2019-05-11T10:25:10.770Z,10.28
2019-05-11T10:27:40.264Z,16.80
2019-05-11T10:30:11.474Z,9.53
2019-05-11T10:32:41.891Z,10.58
2019-05-11T10:35:11.419Z,13.85
2019-05-11T10:37:40.974Z,10.18
2019-05-11T10:40:10.625Z,10.10
2019-05-11T10:42:42.208Z,28.05
2019-05-11T10:45:13.058Z,16.12
2019-05-11T10:47:43.934Z,17.90
2019-05-11T10:50:13.957Z,19.12
2019-05-11T10:52:44.841Z,22.17
2019-05-11T10:55:14.524Z,22.58
2019-05-11T10:57:44.157Z,19.40
2019-05-11T11:00:13.690Z,19.00
2019-05-11T11:02:43.305Z,14.95
2019-05-11T11:05:12.904Z,16.65
2019-05-11T11:07:42.448Z,15.28
2019-05-11T11:10:12.347Z,20.65
2019-05-11T11:12:42.932Z,21.35
2019-05-11T11:15:13.710Z,20.37
2019-05-11T11:17:44.893Z,19.80
2019-05-11T11:20:14.675Z,19.52
2019-05-11T11:22:49.991Z,19.57
2019-05-11T11:25:22.847Z,15.05
2019-05-11T11:27:54.290Z,19.20
2019-05-11T11:30:25.869Z,20.92
2019-05-11T11:32:59.083Z,22.30
2019-05-11T11:35:38.855Z,19.07
2019-05-11T11:38:04.545Z,18.87
2019-05-11T11:40:38.715Z,22.22
2019-05-11T11:43:18.464Z,19.55
2019-05-11T11:45:49.164Z,20.80
2019-05-11T11:54:54.106Z,19.12
2019-05-11T11:57:33.440Z,16.07
2019-05-11T12:02:58.071Z,16.40
2019-05-11T12:30:00.250Z,11.90
2019-05-11T12:32:45.795Z,13.40
2019-05-11T12:35:17.671Z,12.78
2019-05-11T12:37:48.479Z,12.07
2019-05-11T12:40:19.208Z,10.90
2019-05-11T12:42:49.126Z,10.55
2019-05-11T12:45:18.695Z,12.98
2019-05-11T12:47:48.370Z,10.80
2019-05-11T12:50:23.184Z,14.73
2019-05-11T12:52:58.799Z,13.20
2019-05-11T12:55:29.725Z,9.75
2019-05-11T12:57:59.604Z,8.88
2019-05-11T13:00:34.933Z,13.03
2019-05-11T13:03:23.749Z,7.22
2019-05-11T13:05:48.363Z,9.40
2019-05-11T13:08:33.324Z,10.00
2019-05-11T13:11:50.482Z,11.03
2019-05-11T13:14:23.619Z,8.70
2019-05-11T13:17:11.319Z,8.58
2019-05-11T13:22:29.403Z,9.00
2019-05-11T13:24:50.168Z,9.48
2019-05-11T13:27:33.127Z,8.15
2019-05-11T13:30:18.366Z,13.45
2019-05-11T13:33:03.057Z,11.93
2019-05-11T13:35:22.819Z,8.83
2019-05-11T13:38:11.659Z,10.80
2019-05-11T13:41:50.305Z,9.18
2019-05-11T13:43:33.386Z,11.38
2019-05-11T13:46:04.071Z,8.10
2019-05-11T13:48:33.667Z,8.05
2019-05-11T13:51:03.235Z,9.45
2019-05-11T13:53:32.734Z,9.35
2019-05-11T13:56:02.273Z,11.38
2019-05-11T13:58:31.775Z,8.68
2019-05-11T14:04:33.430Z,6.78
2019-05-11T14:07:02.909Z,9.78
2019-05-11T14:09:32.395Z,7.28
2019-05-11T14:12:03.127Z,9.08
2019-05-11T14:14:32.570Z,8.48
2019-05-11T14:17:02.077Z,8.18
2019-05-11T14:19:31.576Z,7.85
2019-05-11T14:22:01.020Z,7.60
2019-05-11T14:24:30.514Z,7.87
2019-05-11T14:27:00.060Z,7.40
2019-05-11T14:29:29.609Z,6.95
2019-05-11T14:31:59.200Z,7.33
2019-05-11T14:34:31.806Z,6.50
2019-05-11T14:37:01.272Z,9.88
2019-05-11T14:39:30.745Z,10.50
2019-05-11T14:42:00.406Z,7.22
2019-05-11T14:44:29.911Z,6.58
2019-05-11T14:46:59.431Z,8.75
2019-05-11T14:49:29.035Z,9.53
2019-05-11T14:51:58.554Z,8.23
2019-05-11T14:54:28.800Z,6.30
2019-05-11T14:56:58.772Z,7.10
2019-05-11T14:59:28.714Z,7.25
2019-05-11T15:01:58.449Z,7.55
2019-05-11T15:04:28.818Z,7.72
2019-05-11T15:06:58.405Z,6.08
2019-05-11T15:09:30.806Z,6.40
2019-05-11T15:12:00.252Z,7.42
2019-05-11T15:14:29.804Z,6.10
2019-05-11T15:17:00.442Z,6.30
2019-05-11T15:19:29.927Z,6.37
2019-05-11T15:22:00.046Z,6.60
2019-05-11T15:24:29.541Z,7.53
2019-05-11T15:26:59.058Z,5.78
2019-05-11T15:29:28.867Z,5.80
2019-05-11T15:31:58.522Z,11.53
2019-05-11T15:34:28.820Z,7.53
2019-05-11T15:36:58.473Z,5.95
2019-05-11T15:39:28.842Z,7.03
2019-05-11T15:42:09.664Z,5.65
2019-05-11T15:44:29.562Z,7.72
2019-05-11T15:46:59.036Z,6.70
2019-05-11T15:49:28.593Z,8.38
2019-05-11T15:51:58.122Z,6.22
2019-05-11T15:54:30.848Z,6.97
2019-05-11T15:57:04.803Z,6.28
2019-05-11T15:59:35.947Z,6.03
2019-05-11T16:02:09.590Z,5.15
2019-05-11T16:04:43.343Z,6.35
2019-05-11T16:07:18.813Z,8.63
2019-05-11T16:09:45.211Z,5.03
2019-05-11T16:12:18.188Z,6.37
2019-05-11T16:14:48.585Z,8.03
2019-05-11T16:17:20.776Z,5.58
2019-05-11T16:19:54.755Z,6.20
2019-05-11T16:22:24.681Z,6.22
2019-05-11T16:24:57.975Z,12.40
2019-05-11T16:27:32.699Z,10.03
2019-05-11T16:30:08.495Z,6.75
2019-05-11T16:32:50.131Z,8.48
2019-05-11T16:35:14.645Z,8.78
2019-05-11T16:37:44.182Z,6.15
2019-05-11T16:40:20.178Z,6.47
2019-05-11T16:42:52.362Z,6.97
2019-05-11T16:45:24.039Z,7.58
2019-05-11T16:47:55.565Z,9.03
2019-05-11T16:50:25.294Z,5.25
2019-05-11T16:52:58.282Z,6.67
2019-05-11T16:55:27.642Z,8.05
2019-05-11T16:57:58.912Z,6.30
2019-05-11T17:00:39.257Z,5.92
2019-05-11T17:03:10.646Z,4.37
2019-05-11T17:05:40.387Z,5.65
2019-05-11T17:08:14.023Z,5.15
2019-05-11T17:10:47.929Z,5.35
2019-05-11T17:13:24.474Z,6.08
2019-05-11T17:15:51.471Z,5.20
2019-05-11T17:18:22.552Z,7.03
2019-05-11T17:20:52.212Z,5.97
2019-05-11T17:23:21.749Z,6.95
2019-05-11T17:25:51.416Z,5.87
2019-05-11T17:28:25.565Z,5.40
2019-05-11T17:30:59.797Z,5.70
2019-05-11T17:33:29.048Z,6.60
2019-05-11T17:35:58.824Z,5.55
2019-05-11T17:38:28.421Z,6.85
2019-05-11T17:40:57.968Z,6.85
2019-05-11T17:43:28.111Z,5.90
2019-05-11T17:45:58.533Z,6.42
2019-05-11T17:48:28.292Z,6.72
2019-05-11T17:50:58.182Z,8.18
2019-05-11T17:53:28.643Z,6.70
2019-05-11T17:55:58.193Z,7.58
2019-05-11T17:58:27.828Z,11.78
2019-05-11T18:00:58.790Z,13.22
2019-05-11T18:03:28.481Z,10.35
2019-05-11T18:05:58.957Z,10.75
2019-05-11T18:08:30.906Z,10.50
2019-05-11T18:11:00.037Z,11.63
2019-05-11T18:13:29.563Z,9.58
2019-05-11T18:15:59.346Z,13.05
2019-05-11T18:18:29.288Z,10.32
2019-05-11T18:20:58.862Z,10.40
2019-05-11T18:23:28.495Z,12.78
2019-05-11T18:25:58.175Z,13.10
2019-05-11T18:28:29.093Z,12.98
2019-05-11T18:30:58.824Z,12.65
2019-05-11T18:33:28.296Z,8.90
2019-05-11T18:35:58.694Z,13.38
2019-05-11T18:38:28.352Z,13.15
2019-05-11T18:40:58.217Z,10.82
2019-05-11T18:43:28.142Z,8.23
2019-05-11T18:45:58.403Z,7.12
2019-05-11T18:48:28.966Z,10.43
2019-05-11T18:50:59.143Z,13.75
2019-05-11T18:53:29.087Z,14.70
2019-05-11T18:55:59.195Z,13.68
2019-05-11T18:59:34.074Z,17.17
2019-05-11T19:02:51.711Z,13.38
2019-05-11T19:05:25.916Z,18.87
2019-05-11T19:18:38.672Z,7.75
2019-05-11T19:21:22.945Z,11.25
2019-05-11T19:23:59.864Z,8.43
2019-05-11T19:27:13.842Z,10.68
2019-05-11T19:30:07.910Z,10.20
2019-05-11T19:33:01.566Z,9.45
2019-05-11T19:37:00.734Z,10.88
2019-05-11T19:39:19.319Z,13.20
2019-05-11T19:42:02.174Z,11.48
2019-05-11T19:44:57.805Z,12.05
2019-05-11T19:47:40.431Z,9.70
2019-05-11T19:50:15.150Z,11.90
2019-05-11T19:53:08.371Z,13.03
2019-05-11T19:55:52.534Z,10.90
2019-05-11T19:58:32.783Z,13.17
2019-05-11T20:01:42.945Z,12.10
2019-05-11T20:04:22.558Z,13.80
2019-05-11T20:06:54.241Z,12.23
2019-05-11T20:09:44.831Z,12.37
2019-05-11T20:12:41.873Z,13.40
2019-05-11T20:15:13.917Z,12.63
2019-05-11T20:18:28.653Z,13.70
2019-05-11T20:20:40.560Z,13.63
2019-05-11T20:23:25.165Z,13.77
2019-05-11T20:26:37.713Z,15.07
2019-05-11T20:28:42.606Z,14.57
2019-05-11T20:31:19.960Z,17.03
2019-05-11T20:33:48.842Z,14.60
2019-05-11T20:36:20.610Z,13.30
2019-05-11T20:38:51.981Z,15.03
2019-05-11T20:41:27.817Z,13.97
2019-05-11T20:43:58.032Z,18.13
2019-05-11T20:46:43.958Z,18.43
2019-05-11T20:49:16.235Z,15.00
2019-05-11T20:51:45.909Z,15.57
2019-05-11T20:54:20.548Z,15.23
2019-05-11T20:56:49.324Z,17.23
2019-05-11T20:59:20.319Z,16.03
2019-05-11T21:02:10.807Z,15.63
2019-05-11T21:04:49.081Z,16.13
2019-05-11T21:07:31.100Z,18.13
2019-05-11T21:10:08.462Z,18.33
2019-05-11T21:13:02.623Z,15.73
2019-05-11T21:15:28.021Z,18.80
2019-05-11T21:18:12.001Z,16.13
2019-05-11T21:20:48.383Z,20.87
2019-05-11T21:24:13.826Z,18.00
2019-05-11T21:26:28.372Z,22.57
2019-05-11T21:29:08.614Z,19.17
2019-05-11T21:32:11.440Z,19.83
2019-05-11T21:37:27.755Z,22.97
2019-05-11T21:40:02.455Z,21.77
2019-05-11T21:42:33.318Z,24.83
2019-05-11T21:45:09.113Z,21.67
2019-05-11T21:47:48.852Z,17.57
2019-05-11T21:50:15.276Z,18.93
2019-05-11T21:52:50.061Z,23.53
2019-05-11T21:55:37.723Z,21.87
2019-05-11T21:58:11.971Z,17.77
2019-05-11T22:00:49.603Z,19.37
2019-05-11T22:03:21.133Z,21.60
2019-05-11T22:05:53.591Z,19.57
2019-05-11T22:08:28.383Z,19.70
2019-05-11T22:11:41.274Z,21.00
2019-05-11T22:14:02.688Z,23.93
2019-05-11T22:16:32.957Z,20.67
2019-05-11T22:19:05.092Z,20.60
2019-05-11T22:21:42.730Z,16.93
2019-05-11T22:24:14.739Z,16.23
2019-05-11T22:26:48.108Z,17.50
2019-05-11T22:29:19.561Z,19.03
2019-05-11T22:31:51.988Z,20.00
2019-05-11T22:34:22.018Z,18.07
2019-05-11T22:36:55.394Z,19.47
2019-05-11T22:39:37.875Z,18.50
2019-05-11T22:42:12.575Z,20.00
2019-05-11T22:44:45.553Z,19.97
2019-05-11T22:47:20.293Z,20.30
2019-05-11T22:49:54.192Z,19.70
2019-05-11T22:52:36.645Z,19.90
2019-05-11T22:55:08.995Z,20.37
2019-05-11T22:57:45.351Z,18.63
2019-05-11T23:00:19.152Z,21.60
2019-05-11T23:02:58.709Z,20.13
2019-05-11T23:05:38.320Z,22.97
2019-05-11T23:08:13.859Z,21.40
2019-05-11T23:11:02.342Z,21.93
2019-05-11T23:13:38.227Z,22.47
2019-05-11T23:16:21.169Z,23.53
2019-05-11T23:18:53.179Z,19.40
2019-05-11T23:21:30.325Z,22.93
2019-05-11T23:24:00.368Z,19.93
2019-05-11T23:26:38.564Z,20.50
2019-05-11T23:29:08.140Z,20.27
2019-05-11T23:31:42.654Z,19.30
2019-05-11T23:34:17.732Z,20.70
2019-05-11T23:36:48.636Z,23.03
2019-05-11T23:39:24.203Z,20.47
2019-05-11T23:42:08.086Z,19.47
2019-05-11T23:44:49.830Z,19.03
2019-05-11T23:47:28.732Z,18.40
2019-05-11T23:50:02.546Z,18.53
2019-05-11T23:52:35.037Z,16.00
2019-05-11T23:55:10.632Z,20.97
2019-05-11T23:57:48.644Z,19.00
